Pagina principale
METAR-TAF:

METAR-TAF

Aeroporti :

Aeroporto Internazionale Regina Alia

Amman-Queen Alia, Giordania

latitudine: 31-40N, longitudine: 035-58E, altezza: 721 m

Osservazione

Il bollettino è stato emesso 26 minuti fa, alle 06:00 UTC
Vento 10 kt da ovest
Temperature 26°C
Umidità 32%
Pressione 1014 hPa
Visibilità: 4000 m

METAR: OJAI 270600Z 28010KT 8000 4000E NSC 26/08 Q1014 NOSIG

Ora: 09:26 (06:26 UTC)

Previsione

Il bollettino è stato emesso 1 ora e 36 minuti fa, alle 04:50 UTC
Previsione valida dal 27 alle 06 UTC al 28 alle 12 UTC
Vento 10 kt da ovest/nord-ovest
Visibilità: 5000 m
foschia
Probabilità 40%
dal 27 alle 13 UTC al 27 alle 17 UTC
Vento 16 kt da ovest/nord-ovest
Visibilità: 4000 m
Scaccia polvere alto

TAF: OJAI 270450Z 2706/2812 30010KT 5000 HZ NSC PROB40 2713/2717 30016KT 4000 BLDU

Osservazioni e previsioni meteorologiche di più di 4000 aeroporti (messaggi METAR e TAF).

Le stazioni disponibili sono rappresentate dai dischi gialli e rossi sulla carta.

Puntare il mouse per vedere il nome della stazione.

Clicca sopra per visualizzare le osservazioni e previsioni meteorologiche.

Per cambiare la mappa : fare clic sui pulsanti verdi con una croce nera per ingrandire, il pulsante verde con un trattino per diminuire, o sulla freccia verde per le mappe adiacenti.


METAR-TAF: